createdAt,value
2023-05-14T00:00:23.309Z,36.55
2023-05-14T00:02:51.351Z,33.53
2023-05-14T00:05:19.547Z,36.15
2023-05-14T00:07:47.016Z,38.28
2023-05-14T00:10:14.511Z,36.63
2023-05-14T00:12:41.977Z,37.65
2023-05-14T00:15:10.378Z,39.47
2023-05-14T00:17:38.152Z,39.65
2023-05-14T00:20:07.295Z,32.95
2023-05-14T00:22:37.244Z,39.25
2023-05-14T00:25:06.609Z,37.28
2023-05-14T00:27:35.021Z,34.17
2023-05-14T00:30:04.797Z,36.75
2023-05-14T00:32:32.694Z,40.22
2023-05-14T00:35:02.990Z,35.78
2023-05-14T00:37:31.702Z,35.30
2023-05-14T00:40:01.867Z,35.15
2023-05-14T00:42:30.285Z,34.50
2023-05-14T00:44:57.766Z,47.20
2023-05-14T00:47:27.111Z,35.13
2023-05-14T00:49:59.527Z,34.85
2023-05-14T00:52:28.044Z,38.42
2023-05-14T00:54:57.317Z,37.90
2023-05-14T00:57:24.824Z,34.47
2023-05-14T00:59:52.874Z,44.50
2023-05-14T01:02:21.680Z,33.47
2023-05-14T01:04:49.732Z,30.58
2023-05-14T01:07:35.129Z,47.33
2023-05-14T01:10:11.492Z,37.33
2023-05-14T01:12:44.498Z,44.97
2023-05-14T01:15:19.584Z,43.13
2023-05-14T01:17:52.003Z,37.33
2023-05-14T01:20:20.988Z,47.30
2023-05-14T01:22:49.888Z,44.20
2023-05-14T01:25:18.182Z,58.72
2023-05-14T01:28:04.043Z,47.15
2023-05-14T01:30:36.601Z,46.60
2023-05-14T01:33:09.270Z,53.00
2023-05-14T01:35:37.735Z,49.97
2023-05-14T01:38:10.453Z,51.30
2023-05-14T01:40:38.420Z,52.00
2023-05-14T01:43:06.636Z,54.20
2023-05-14T01:45:36.266Z,53.88
2023-05-14T01:48:05.619Z,55.50
2023-05-14T01:50:33.362Z,55.08
2023-05-14T01:53:00.752Z,51.38
2023-05-14T01:55:30.687Z,50.00
2023-05-14T01:57:58.139Z,53.63
2023-05-14T02:00:26.969Z,63.55
2023-05-14T02:02:54.372Z,64.25
2023-05-14T02:05:23.786Z,61.70
2023-05-14T02:07:51.384Z,54.72
2023-05-14T02:10:18.833Z,59.22
2023-05-14T02:12:49.961Z,50.90
2023-05-14T02:15:24.778Z,49.70
2023-05-14T02:17:53.410Z,52.58
2023-05-14T02:20:20.959Z,43.80
2023-05-14T02:22:48.524Z,47.72
2023-05-14T02:25:16.151Z,47.58
2023-05-14T02:27:45.846Z,61.97
2023-05-14T02:30:13.549Z,51.55
2023-05-14T02:32:41.280Z,50.30
2023-05-14T02:35:09.709Z,51.83
2023-05-14T02:37:37.912Z,48.05
2023-05-14T02:40:07.387Z,46.50
2023-05-14T02:42:35.614Z,60.03
2023-05-14T02:45:02.955Z,58.67
2023-05-14T02:47:30.436Z,54.53
2023-05-14T02:49:57.914Z,51.60
2023-05-14T02:52:25.658Z,50.65
2023-05-14T02:54:53.108Z,57.17
2023-05-14T02:57:21.169Z,72.90
2023-05-14T02:59:49.341Z,74.30
2023-05-14T03:02:17.211Z,65.30
2023-05-14T03:04:45.446Z,74.97
2023-05-14T03:07:12.721Z,66.88
2023-05-14T03:09:40.061Z,71.57
2023-05-14T03:12:08.127Z,75.00
2023-05-14T03:14:35.502Z,64.03
2023-05-14T03:17:03.951Z,62.17
2023-05-14T03:19:31.886Z,60.20
2023-05-14T03:21:59.856Z,75.05
2023-05-14T03:24:28.229Z,68.00
2023-05-14T03:26:55.524Z,68.88
2023-05-14T03:29:23.200Z,61.13
2023-05-14T03:31:51.000Z,64.75
2023-05-14T03:34:18.431Z,75.15
2023-05-14T03:36:45.886Z,62.78
2023-05-14T03:39:17.954Z,57.85
2023-05-14T03:41:46.825Z,55.72
2023-05-14T03:44:14.718Z,61.25
2023-05-14T03:46:42.153Z,65.25
2023-05-14T03:49:09.978Z,74.13
2023-05-14T03:51:37.427Z,65.03
2023-05-14T03:54:07.586Z,67.95
2023-05-14T03:56:36.116Z,73.53
2023-05-14T03:59:04.005Z,66.13
2023-05-14T04:01:32.759Z,67.25
2023-05-14T04:04:00.216Z,80.20
2023-05-14T04:06:27.681Z,77.60
2023-05-14T04:08:55.586Z,67.20
2023-05-14T04:11:22.895Z,71.03
2023-05-14T04:13:50.253Z,74.82
2023-05-14T04:16:17.763Z,79.82
2023-05-14T04:18:45.298Z,72.75
2023-05-14T04:21:12.693Z,77.93
2023-05-14T04:23:40.181Z,67.07
2023-05-14T04:26:07.536Z,67.68
2023-05-14T04:28:36.255Z,66.82
2023-05-14T04:31:03.846Z,70.65
2023-05-14T04:33:32.120Z,61.53
2023-05-14T04:35:59.846Z,68.28
2023-05-14T04:38:28.202Z,61.42
2023-05-14T04:40:55.571Z,56.33
2023-05-14T04:43:22.856Z,54.55
2023-05-14T04:45:51.373Z,54.08
2023-05-14T04:48:19.011Z,52.67
2023-05-14T04:50:46.677Z,53.35
2023-05-14T04:53:14.162Z,61.47
2023-05-14T04:55:42.941Z,60.00
2023-05-14T04:58:10.541Z,58.20
2023-05-14T05:00:40.076Z,58.05
2023-05-14T05:03:08.792Z,59.42
2023-05-14T05:05:36.368Z,55.65
2023-05-14T05:08:03.945Z,48.90
2023-05-14T05:10:31.582Z,50.83
2023-05-14T05:12:59.357Z,56.95
2023-05-14T05:15:27.163Z,55.33
2023-05-14T05:17:54.807Z,50.38
2023-05-14T05:20:23.636Z,51.00
2023-05-14T05:22:51.099Z,59.70
2023-05-14T05:25:18.541Z,51.92
2023-05-14T05:27:46.878Z,62.20
2023-05-14T05:30:14.558Z,53.40
2023-05-14T05:32:43.849Z,64.47
2023-05-14T05:35:12.652Z,52.63
2023-05-14T05:37:41.468Z,58.20
2023-05-14T05:40:10.251Z,56.13
2023-05-14T05:42:37.839Z,43.72
2023-05-14T05:45:06.943Z,54.35
2023-05-14T05:47:34.894Z,57.65
2023-05-14T05:50:03.025Z,66.97
2023-05-14T05:52:30.842Z,64.38
2023-05-14T05:54:58.269Z,72.10
2023-05-14T05:57:27.355Z,60.55
2023-05-14T05:59:55.872Z,69.95
2023-05-14T06:02:23.426Z,75.57
2023-05-14T06:04:51.424Z,66.75
2023-05-14T06:07:18.783Z,64.68
2023-05-14T06:09:46.157Z,65.55
2023-05-14T06:12:15.051Z,57.72
2023-05-14T06:14:43.938Z,54.58
2023-05-14T06:17:11.938Z,56.45
2023-05-14T06:19:39.435Z,68.05
2023-05-14T06:22:07.236Z,58.15
2023-05-14T06:24:35.802Z,59.38
2023-05-14T06:27:03.579Z,64.00
2023-05-14T06:29:32.436Z,58.47
2023-05-14T06:32:04.450Z,63.60
2023-05-14T06:34:32.368Z,53.00
2023-05-14T06:37:00.533Z,47.08
2023-05-14T06:39:28.846Z,58.42
2023-05-14T06:41:56.258Z,51.90
2023-05-14T06:44:24.349Z,45.42
2023-05-14T06:46:52.131Z,51.97
2023-05-14T06:49:19.712Z,47.22
2023-05-14T06:51:47.516Z,50.22
2023-05-14T06:54:16.040Z,47.10
2023-05-14T06:56:43.893Z,54.47
2023-05-14T06:59:11.349Z,43.90
2023-05-14T07:01:39.483Z,49.03
2023-05-14T07:04:08.532Z,46.45
2023-05-14T07:06:36.102Z,52.97
2023-05-14T07:09:03.883Z,54.22
2023-05-14T07:11:31.372Z,50.35
2023-05-14T07:14:01.156Z,59.00
2023-05-14T07:16:28.711Z,51.45
2023-05-14T07:18:56.139Z,47.78
2023-05-14T07:21:23.586Z,41.70
2023-05-14T07:23:51.995Z,47.17
2023-05-14T07:26:19.368Z,46.45
2023-05-14T07:28:46.809Z,49.58
2023-05-14T07:31:15.730Z,47.22
2023-05-14T07:33:43.125Z,44.95
2023-05-14T07:36:10.610Z,47.80
2023-05-14T07:38:38.220Z,50.05
2023-05-14T07:41:05.787Z,47.88
2023-05-14T07:43:33.165Z,46.55
2023-05-14T07:46:00.957Z,45.72
2023-05-14T07:48:28.492Z,40.53
2023-05-14T07:50:56.421Z,46.17
2023-05-14T07:53:25.072Z,44.22
2023-05-14T07:55:52.881Z,42.78
2023-05-14T07:58:22.346Z,42.83
2023-05-14T08:00:49.735Z,51.83
2023-05-14T08:03:17.231Z,49.80
2023-05-14T08:05:44.982Z,37.85
2023-05-14T08:08:20.036Z,46.42
2023-05-14T08:10:47.789Z,43.17
2023-05-14T08:13:15.436Z,45.40
2023-05-14T08:15:42.778Z,47.50
2023-05-14T08:18:12.699Z,46.60
2023-05-14T08:20:40.235Z,40.28
2023-05-14T08:23:08.045Z,38.30
2023-05-14T08:25:36.300Z,41.45
2023-05-14T08:28:03.786Z,41.53
2023-05-14T08:30:31.639Z,53.42
2023-05-14T08:32:59.721Z,45.83
2023-05-14T08:35:27.238Z,46.03
2023-05-14T08:37:57.202Z,39.97
2023-05-14T08:40:26.520Z,44.15
2023-05-14T08:42:56.770Z,43.67
2023-05-14T08:45:34.623Z,47.58
2023-05-14T08:48:08.852Z,43.40
2023-05-14T08:50:37.002Z,36.72
2023-05-14T08:53:04.347Z,40.40
2023-05-14T08:55:34.049Z,43.85
2023-05-14T08:58:01.709Z,41.63
2023-05-14T09:00:29.499Z,38.08
2023-05-14T09:02:57.897Z,39.85
2023-05-14T09:05:25.548Z,47.05
2023-05-14T09:07:53.823Z,41.88
2023-05-14T09:10:22.327Z,45.55
2023-05-14T09:12:51.834Z,42.08
2023-05-14T09:15:19.906Z,41.72
2023-05-14T09:17:48.662Z,47.30
2023-05-14T09:20:16.521Z,40.75
2023-05-14T09:22:43.898Z,45.03
2023-05-14T09:25:14.776Z,46.33
2023-05-14T09:27:42.566Z,44.15
2023-05-14T09:30:12.771Z,39.72
2023-05-14T09:32:44.221Z,43.80
2023-05-14T09:35:23.245Z,40.22
2023-05-14T09:37:55.565Z,48.38
2023-05-14T09:40:25.013Z,47.30
2023-05-14T09:42:52.569Z,45.13
2023-05-14T09:45:22.583Z,38.35
2023-05-14T09:47:50.128Z,36.30
2023-05-14T09:50:18.400Z,37.40
2023-05-14T09:52:45.941Z,37.80
2023-05-14T09:55:16.279Z,41.35
2023-05-14T09:57:44.219Z,32.88
2023-05-14T10:00:13.467Z,38.85
2023-05-14T10:02:42.773Z,36.35
2023-05-14T10:05:13.081Z,36.42
2023-05-14T10:07:46.355Z,37.67
2023-05-14T10:10:19.235Z,42.22
2023-05-14T10:12:56.787Z,39.10
2023-05-14T10:15:30.032Z,33.95
2023-05-14T10:18:03.478Z,33.85
2023-05-14T10:20:32.602Z,31.15
2023-05-14T10:23:00.623Z,33.58
2023-05-14T10:25:30.034Z,31.80
2023-05-14T10:27:58.037Z,34.88
2023-05-14T10:30:25.930Z,31.10
2023-05-14T10:33:12.454Z,29.02
2023-05-14T10:36:00.993Z,38.45
2023-05-14T10:38:33.640Z,29.10
2023-05-14T10:41:07.089Z,33.97
2023-05-14T10:43:38.843Z,30.13
2023-05-14T10:46:07.542Z,32.28
2023-05-14T10:48:36.633Z,32.33
2023-05-14T10:51:04.069Z,31.65
2023-05-14T10:53:42.767Z,31.70
2023-05-14T10:56:12.299Z,34.70
2023-05-14T10:58:45.314Z,31.20
2023-05-14T11:01:14.121Z,34.22
2023-05-14T11:03:42.742Z,29.58
2023-05-14T11:06:13.042Z,31.60
2023-05-14T11:08:43.871Z,31.38
2023-05-14T11:11:15.510Z,35.33
2023-05-14T11:13:43.679Z,28.27
2023-05-14T11:16:22.657Z,28.83
2023-05-14T11:19:04.619Z,35.75
2023-05-14T11:21:34.703Z,30.30
2023-05-14T11:24:05.356Z,34.65
2023-05-14T11:26:33.052Z,30.05
2023-05-14T11:29:01.065Z,26.65
2023-05-14T11:31:28.598Z,30.27
2023-05-14T11:33:56.223Z,27.58
2023-05-14T11:36:23.600Z,27.25
2023-05-14T11:38:52.343Z,35.50
2023-05-14T11:41:21.628Z,26.02
2023-05-14T11:43:49.286Z,27.70
2023-05-14T11:46:18.671Z,43.55
2023-05-14T11:48:47.546Z,32.00
2023-05-14T11:51:15.093Z,29.67
2023-05-14T11:53:42.362Z,28.27
2023-05-14T11:56:10.056Z,22.77
2023-05-14T11:58:37.742Z,26.45
2023-05-14T12:01:05.632Z,29.00
2023-05-14T12:03:33.233Z,25.77
2023-05-14T12:06:03.444Z,27.65
2023-05-14T12:08:31.598Z,23.85
2023-05-14T12:11:00.595Z,25.48
2023-05-14T12:13:31.488Z,29.95
2023-05-14T12:16:02.161Z,26.92
2023-05-14T12:18:31.459Z,23.33
2023-05-14T12:21:07.906Z,27.70
2023-05-14T12:23:35.551Z,25.92
2023-05-14T12:26:08.531Z,27.95
2023-05-14T12:28:39.992Z,23.10
2023-05-14T12:31:07.326Z,20.40
2023-05-14T12:33:34.725Z,25.38
2023-05-14T12:38:34.587Z,24.98
2023-05-14T12:41:02.096Z,25.63
2023-05-14T12:43:31.682Z,19.20
2023-05-14T12:45:59.001Z,24.40
2023-05-14T12:48:26.589Z,16.80
2023-05-14T12:50:53.939Z,29.42
2023-05-14T12:53:21.201Z,21.25
2023-05-14T12:55:49.658Z,24.30
2023-05-14T12:58:17.190Z,17.10
2023-05-14T13:00:44.520Z,24.88
2023-05-14T13:03:11.919Z,18.45
2023-05-14T13:05:39.383Z,16.08
2023-05-14T13:08:06.721Z,23.10
2023-05-14T13:10:34.023Z,16.42
2023-05-14T13:13:02.499Z,21.23
2023-05-14T13:15:31.569Z,21.45
2023-05-14T13:17:59.114Z,19.27
2023-05-14T13:20:30.991Z,17.77
2023-05-14T13:22:59.690Z,23.60
2023-05-14T13:25:27.685Z,18.83
2023-05-14T13:27:56.098Z,16.15
2023-05-14T13:30:23.554Z,17.45
2023-05-14T13:32:51.093Z,16.55
2023-05-14T13:35:18.472Z,14.55
2023-05-14T13:37:47.219Z,19.17
2023-05-14T13:40:16.692Z,16.35
2023-05-14T13:42:44.019Z,18.80
2023-05-14T13:45:13.061Z,16.05
2023-05-14T13:47:41.468Z,19.70
2023-05-14T13:50:09.393Z,20.95
2023-05-14T13:52:37.798Z,17.85
2023-05-14T13:55:05.600Z,22.10
2023-05-14T13:57:32.906Z,14.57
2023-05-14T14:00:00.265Z,16.77
2023-05-14T14:02:27.668Z,12.88
2023-05-14T14:04:54.941Z,18.45
2023-05-14T14:07:22.628Z,19.55
2023-05-14T14:09:49.897Z,18.20
2023-05-14T14:12:17.476Z,12.55
2023-05-14T14:14:44.798Z,13.57
2023-05-14T14:17:12.115Z,9.02
2023-05-14T14:19:39.418Z,13.25
2023-05-14T14:22:07.002Z,8.75
2023-05-14T14:24:34.532Z,10.18
2023-05-14T14:27:02.573Z,13.48
2023-05-14T14:29:31.131Z,11.13
2023-05-14T14:31:59.144Z,11.00
2023-05-14T14:34:26.625Z,13.38
2023-05-14T14:36:53.922Z,13.10
2023-05-14T14:39:21.552Z,11.50
2023-05-14T14:41:48.960Z,10.02
2023-05-14T14:44:16.288Z,13.35
2023-05-14T14:46:43.594Z,13.82
2023-05-14T14:49:11.139Z,12.73
2023-05-14T14:51:38.447Z,10.18
2023-05-14T14:54:05.900Z,16.85
2023-05-14T14:56:33.857Z,15.35
2023-05-14T14:59:03.792Z,19.00
2023-05-14T15:01:32.910Z,15.10
2023-05-14T15:04:00.404Z,14.80
2023-05-14T15:06:27.913Z,13.48
2023-05-14T15:08:55.216Z,25.20
2023-05-14T15:11:23.397Z,28.60
2023-05-14T15:13:50.927Z,11.63
2023-05-14T15:16:18.277Z,16.13
2023-05-14T15:18:45.808Z,14.15
2023-05-14T15:21:13.216Z,16.60
2023-05-14T15:23:40.724Z,18.33
2023-05-14T15:26:08.111Z,12.32
2023-05-14T15:28:35.601Z,15.38
2023-05-14T15:31:03.572Z,12.70
2023-05-14T15:33:30.928Z,17.00
2023-05-14T15:35:58.483Z,12.40
2023-05-14T15:38:25.996Z,10.27
2023-05-14T15:40:54.641Z,16.10
2023-05-14T15:43:24.571Z,11.93
2023-05-14T15:45:51.897Z,13.93
2023-05-14T15:48:19.199Z,14.75
2023-05-14T15:50:49.659Z,12.00
2023-05-14T15:53:17.871Z,17.98
2023-05-14T15:55:45.324Z,16.27
2023-05-14T15:58:12.871Z,17.77
2023-05-14T16:00:40.297Z,15.25
2023-05-14T16:03:07.729Z,13.23
2023-05-14T16:05:35.301Z,14.75
2023-05-14T16:08:02.742Z,12.70
2023-05-14T16:10:32.782Z,18.25
2023-05-14T16:13:00.289Z,15.43
2023-05-14T16:15:29.216Z,18.92
2023-05-14T16:17:57.429Z,24.23
2023-05-14T16:20:25.016Z,19.02
2023-05-14T16:22:52.545Z,17.85
2023-05-14T16:25:19.855Z,22.92
2023-05-14T16:27:47.209Z,19.13
2023-05-14T16:30:14.587Z,16.55
2023-05-14T16:32:42.271Z,17.02
2023-05-14T16:35:09.929Z,24.08
2023-05-14T16:37:37.291Z,18.60
2023-05-14T16:40:07.447Z,13.20
2023-05-14T16:42:34.872Z,13.45
2023-05-14T16:45:02.196Z,14.10
2023-05-14T16:47:29.568Z,16.95
2023-05-14T16:50:00.059Z,12.93
2023-05-14T16:52:27.936Z,14.05
2023-05-14T16:54:56.692Z,11.05
2023-05-14T16:57:25.490Z,19.65
2023-05-14T16:59:53.542Z,14.02
2023-05-14T17:02:20.974Z,15.50
2023-05-14T17:04:51.502Z,14.25
2023-05-14T17:07:18.877Z,23.15
2023-05-14T17:09:46.251Z,16.42
2023-05-14T17:12:13.970Z,11.52
2023-05-14T17:14:41.279Z,13.95
2023-05-14T17:17:10.819Z,11.50
2023-05-14T17:19:39.610Z,12.50
2023-05-14T17:22:07.503Z,12.73
2023-05-14T17:24:36.379Z,14.48
2023-05-14T17:27:05.072Z,13.07
2023-05-14T17:29:32.764Z,13.63
2023-05-14T17:32:00.558Z,10.55
2023-05-14T17:34:28.240Z,13.07
2023-05-14T17:36:56.257Z,10.45
2023-05-14T17:39:24.852Z,14.43
2023-05-14T17:41:52.758Z,23.75
2023-05-14T17:44:21.407Z,13.77
2023-05-14T17:46:49.728Z,10.50
2023-05-14T17:49:17.043Z,10.27
2023-05-14T17:51:44.490Z,11.75
2023-05-14T17:54:11.784Z,17.05
2023-05-14T17:56:39.584Z,14.68
2023-05-14T17:59:07.157Z,11.45
2023-05-14T18:01:34.487Z,11.43
2023-05-14T18:04:02.338Z,14.82
2023-05-14T18:06:29.754Z,13.95
2023-05-14T18:08:57.272Z,9.70
2023-05-14T18:11:24.754Z,10.55
2023-05-14T18:13:52.041Z,18.63
2023-05-14T18:16:19.590Z,77.30
2023-05-14T18:18:47.316Z,97.38
2023-05-14T18:21:16.034Z,48.42
2023-05-14T18:23:43.554Z,14.10
2023-05-14T18:26:10.970Z,12.52
2023-05-14T18:28:38.583Z,13.70
2023-05-14T18:31:06.039Z,10.13
2023-05-14T18:33:33.898Z,18.70
2023-05-14T18:36:01.695Z,25.70
2023-05-14T18:38:29.044Z,65.60
2023-05-14T18:40:56.399Z,40.47
2023-05-14T18:43:23.872Z,16.17
2023-05-14T18:45:51.412Z,11.18
2023-05-14T18:48:18.818Z,34.35
2023-05-14T18:50:46.127Z,25.73
2023-05-14T18:53:15.009Z,17.35
2023-05-14T18:55:43.206Z,21.83
2023-05-14T18:58:10.688Z,18.20
2023-05-14T19:00:37.985Z,20.25
2023-05-14T19:03:05.501Z,17.38
2023-05-14T19:05:33.106Z,16.15
2023-05-14T19:08:01.029Z,16.58
2023-05-14T19:10:28.417Z,15.52
2023-05-14T19:12:55.969Z,19.25
2023-05-14T19:15:23.513Z,24.75
2023-05-14T19:17:52.079Z,32.70
2023-05-14T19:20:19.522Z,41.33
2023-05-14T19:22:46.949Z,39.75
2023-05-14T19:25:15.416Z,42.97
2023-05-14T19:27:43.110Z,41.47
2023-05-14T19:30:11.144Z,41.63
2023-05-14T19:32:38.532Z,37.25
2023-05-14T19:35:08.041Z,45.13
2023-05-14T19:37:35.538Z,79.30
2023-05-14T19:40:03.662Z,92.63
2023-05-14T19:42:31.834Z,93.50
2023-05-14T19:44:59.104Z,118.53
2023-05-14T19:47:28.463Z,127.72
2023-05-14T19:49:55.882Z,199.77
2023-05-14T19:52:23.378Z,65.40
2023-05-14T19:54:50.780Z,106.22
2023-05-14T19:57:18.141Z,139.60
2023-05-14T19:59:45.655Z,68.85
2023-05-14T20:02:18.660Z,88.22
2023-05-14T20:04:47.386Z,62.33
2023-05-14T20:07:15.809Z,64.97
2023-05-14T20:09:43.300Z,63.47
2023-05-14T20:12:13.247Z,17.63
2023-05-14T20:14:41.492Z,22.48
2023-05-14T20:17:09.164Z,19.48
2023-05-14T20:19:36.622Z,21.40
2023-05-14T20:22:05.600Z,32.83
2023-05-14T20:24:32.961Z,10.75
2023-05-14T20:27:00.929Z,8.02
2023-05-14T20:29:29.729Z,7.22
2023-05-14T20:31:57.300Z,10.05
2023-05-14T20:34:25.153Z,5.38
2023-05-14T20:36:53.429Z,10.63
2023-05-14T20:39:22.535Z,6.38
2023-05-14T20:41:50.106Z,8.57
2023-05-14T20:44:18.432Z,4.55
2023-05-14T20:46:48.471Z,9.20
2023-05-14T20:49:16.106Z,19.52
2023-05-14T20:51:43.459Z,22.38
2023-05-14T20:54:11.252Z,4.78
2023-05-14T20:56:38.821Z,15.30
2023-05-14T20:59:08.760Z,16.23
2023-05-14T21:01:36.534Z,11.10
2023-05-14T21:04:05.363Z,6.60
2023-05-14T21:06:32.736Z,5.78
2023-05-14T21:09:00.048Z,6.25
2023-05-14T21:11:27.329Z,9.82
2023-05-14T21:13:54.962Z,15.07
2023-05-14T21:16:22.489Z,15.13
2023-05-14T21:18:49.940Z,14.70
2023-05-14T21:21:17.316Z,10.57
2023-05-14T21:23:44.744Z,20.83
2023-05-14T21:26:12.106Z,18.25
2023-05-14T21:28:39.465Z,7.15
2023-05-14T21:31:06.957Z,9.63
2023-05-14T21:33:36.160Z,11.27
2023-05-14T21:36:03.895Z,19.65
2023-05-14T21:38:32.880Z,10.10
2023-05-14T21:41:01.665Z,13.75
2023-05-14T21:43:29.017Z,15.65
2023-05-14T21:45:56.410Z,5.43
2023-05-14T21:48:24.690Z,7.10
2023-05-14T21:50:52.154Z,3.63
2023-05-14T21:53:19.552Z,4.90
2023-05-14T21:55:46.941Z,6.88
2023-05-14T21:58:14.454Z,3.97
2023-05-14T22:00:41.750Z,16.90
2023-05-14T22:03:09.333Z,6.85
2023-05-14T22:05:36.943Z,9.80
2023-05-14T22:08:04.404Z,9.15
2023-05-14T22:10:33.045Z,8.05
2023-05-14T22:13:01.752Z,6.65
2023-05-14T22:15:30.604Z,10.10
2023-05-14T22:17:58.458Z,12.27
2023-05-14T22:20:25.980Z,11.75
2023-05-14T22:22:53.409Z,20.02
2023-05-14T22:25:21.895Z,12.88
2023-05-14T22:27:49.268Z,11.18
2023-05-14T22:30:16.600Z,15.60
2023-05-14T22:32:44.409Z,16.55
2023-05-14T22:35:11.699Z,13.00
2023-05-14T22:37:42.128Z,30.90
2023-05-14T22:40:10.054Z,28.85
2023-05-14T22:42:38.673Z,21.80
2023-05-14T22:45:06.821Z,28.92
2023-05-14T22:47:34.236Z,20.05
2023-05-14T22:50:01.547Z,6.07
2023-05-14T22:52:29.024Z,32.20
2023-05-14T22:54:56.401Z,16.48
2023-05-14T22:57:23.985Z,10.80
2023-05-14T22:59:51.478Z,23.77
2023-05-14T23:02:19.641Z,28.30
2023-05-14T23:04:47.120Z,6.65
2023-05-14T23:07:15.297Z,14.05
2023-05-14T23:09:42.549Z,21.67
2023-05-14T23:12:10.090Z,17.80
2023-05-14T23:14:38.495Z,16.98
2023-05-14T23:17:05.882Z,19.75
2023-05-14T23:19:34.672Z,11.73
2023-05-14T23:22:03.749Z,9.00
2023-05-14T23:24:31.081Z,9.45
2023-05-14T23:26:58.466Z,13.15
2023-05-14T23:29:27.314Z,10.07
2023-05-14T23:31:54.643Z,6.82
2023-05-14T23:34:23.373Z,25.63
2023-05-14T23:36:51.460Z,17.35
2023-05-14T23:39:19.065Z,20.85
2023-05-14T23:41:46.464Z,5.13
2023-05-14T23:44:14.175Z,16.55
2023-05-14T23:46:42.970Z,5.85
2023-05-14T23:49:10.399Z,5.75
2023-05-14T23:51:38.180Z,4.80
2023-05-14T23:54:06.000Z,3.22
2023-05-14T23:56:33.699Z,6.72
2023-05-14T23:59:01.639Z,4.68
